Time;durP1;ratioP1;P1;durP2;ratioP2;P2;SDS_P1;SDS_P2;PMS_P1;PMS_P2;Temp;Humidity;BMP_temperature;BMP_pressure;BME280_temperature;BME280_humidity;BME280_pressure;Samples;Min_cycle;Max_cycle;Signal;HPM_P1;HPM_P2
2021/09/03 00:01:44;;;;;;;2.80;1.92;;;;;;;10.31;64.84;99547.58;1783496;79;21025;-39
2021/09/03 00:04:10;;;;;;;3.37;1.82;;;;;;;10.29;64.82;99544.42;1819469;78;21114;-39
2021/09/03 00:06:39;;;;;;;4.33;1.90;;;;;;;10.29;64.94;99547.12;1723488;82;20973;-39
2021/09/03 00:09:07;;;;;;;5.53;1.80;;;;;;;10.31;64.98;99544.86;1734889;80;21540;-39
2021/09/03 00:11:35;;;;;;;4.20;2.05;;;;;;;10.28;64.92;99540.13;1790325;79;21037;-39
2021/09/03 00:14:01;;;;;;;4.72;2.20;;;;;;;10.26;65.05;99543.78;1793846;80;20978;-39
2021/09/03 00:16:28;;;;;;;8.55;2.12;;;;;;;10.23;65.08;99543.91;1789888;79;21104;-39
2021/09/03 00:18:56;;;;;;;3.85;1.70;;;;;;;10.26;64.85;99538.36;1788187;79;21589;-39
2021/09/03 00:21:22;;;;;;;4.72;2.12;;;;;;;10.30;64.63;99540.58;1776153;80;20981;-39
2021/09/03 00:23:49;;;;;;;4.92;1.72;;;;;;;10.33;64.57;99543.92;1785908;80;21509;-39
2021/09/03 00:26:16;;;;;;;4.00;2.33;;;;;;;10.39;64.45;99545.23;1787562;80;21006;-39
2021/09/03 00:28:43;;;;;;;3.67;2.10;;;;;;;10.39;64.14;99541.95;1782875;79;22001;-39
2021/09/03 00:31:10;;;;;;;3.83;2.22;;;;;;;10.38;64.10;99539.59;1778955;80;21017;-39
2021/09/03 00:33:37;;;;;;;4.45;2.10;;;;;;;10.37;64.51;99537.45;1799291;78;21512;-39
2021/09/03 00:36:03;;;;;;;4.20;1.67;;;;;;;10.37;64.44;99536.66;1732191;81;21050;-40
2021/09/03 00:38:31;;;;;;;3.25;1.77;;;;;;;10.37;64.49;99538.02;1742232;82;21061;-39
2021/09/03 00:40:57;;;;;;;5.85;1.80;;;;;;;10.36;64.69;99543.23;1726128;82;21768;-39
2021/09/03 00:43:27;;;;;;;5.72;1.85;;;;;;;10.36;64.57;99539.17;1741639;82;20958;-39
2021/09/03 00:45:56;;;;;;;4.92;1.95;;;;;;;10.40;64.45;99543.53;1710771;82;21029;-39
2021/09/03 00:48:23;;;;;;;3.40;1.60;;;;;;;10.47;64.49;99542.88;1735166;81;21536;-39
2021/09/03 00:50:51;;;;;;;4.40;1.90;;;;;;;10.47;64.26;99536.11;1780423;78;21008;-39
2021/09/03 00:53:17;;;;;;;3.30;1.67;;;;;;;10.50;64.44;99543.55;1778805;80;21087;-39
2021/09/03 00:55:45;;;;;;;2.70;1.60;;;;;;;10.53;64.29;99537.41;1773234;80;21516;-39
2021/09/03 00:58:12;;;;;;;7.62;2.00;;;;;;;10.56;64.00;99540.76;1782775;80;20894;-39
2021/09/03 01:00:39;;;;;;;4.47;1.67;;;;;;;10.55;63.83;99542.48;1783796;80;21030;-39
2021/09/03 01:03:05;;;;;;;4.50;1.70;;;;;;;10.53;63.91;99537.41;1789526;79;21045;-39
2021/09/03 01:05:32;;;;;;;3.45;1.60;;;;;;;10.46;63.97;99541.31;1778262;80;21127;-39
2021/09/03 01:07:59;;;;;;;2.72;1.50;;;;;;;10.41;64.00;99530.74;1767947;79;21500;-39
2021/09/03 01:10:26;;;;;;;3.37;1.47;;;;;;;10.42;63.97;99533.67;1793149;79;21025;-39
2021/09/03 01:12:53;;;;;;;3.70;1.50;;;;;;;10.44;64.00;99525.98;1790354;80;20942;-39
2021/09/03 01:15:20;;;;;;;3.12;1.30;;;;;;;10.40;63.92;99532.69;1791355;80;21523;-39
2021/09/03 01:17:47;;;;;;;5.15;1.47;;;;;;;10.38;64.01;99538.23;1791201;80;21108;-39
2021/09/03 01:20:13;;;;;;;2.37;1.47;;;;;;;10.33;63.69;99537.16;1774467;79;21022;-39
2021/09/03 01:22:40;;;;;;;2.12;1.25;;;;;;;10.25;64.03;99536.78;1795424;78;21253;-39
2021/09/03 01:25:09;;;;;;;5.97;1.70;;;;;;;10.19;64.13;99534.13;1782916;80;21018;-39
2021/09/03 01:27:35;;;;;;;5.37;1.65;;;;;;;10.12;64.29;99533.34;1781269;80;21001;-39
2021/09/03 01:30:04;;;;;;;4.22;1.45;;;;;;;10.05;64.46;99533.20;1780403;80;21144;-39
2021/09/03 01:32:31;;;;;;;4.08;1.42;;;;;;;10.02;64.89;99537.38;1780618;80;20950;-39
2021/09/03 01:34:57;;;;;;;1.95;1.25;;;;;;;10.05;64.93;99533.20;1770595;80;21461;-39
2021/09/03 01:37:23;;;;;;;5.83;1.52;;;;;;;10.03;64.98;99531.39;1780212;80;21038;-39
2021/09/03 01:39:50;;;;;;;3.20;1.60;;;;;;;10.02;65.29;99529.84;1786190;79;21587;-39
2021/09/03 01:42:17;;;;;;;2.30;1.22;;;;;;;9.99;65.40;99520.48;1781973;80;21087;-39
2021/09/03 01:44:43;;;;;;;4.33;1.77;;;;;;;9.97;65.22;99520.04;1785175;80;21042;-39
2021/09/03 01:47:10;;;;;;;4.15;1.47;;;;;;;9.94;65.40;99518.05;1791160;80;20954;-39
2021/09/03 01:49:36;;;;;;;3.20;1.35;;;;;;;9.91;65.30;99522.03;1790573;80;21794;-39
2021/09/03 01:52:04;;;;;;;2.58;1.40;;;;;;;9.90;65.29;99523.95;1790080;79;21010;-39
2021/09/03 01:54:30;;;;;;;4.40;1.40;;;;;;;9.94;65.39;99528.87;1790804;80;21524;-39
2021/09/03 01:56:57;;;;;;;3.50;1.47;;;;;;;9.97;65.34;99522.75;1790977;80;20950;-39
2021/09/03 01:59:23;;;;;;;4.85;1.57;;;;;;;9.98;65.18;99528.39;1789157;80;21505;-40
2021/09/03 02:01:50;;;;;;;4.37;1.50;;;;;;;9.98;65.34;99527.59;1779688;80;21009;-39
2021/09/03 02:04:17;;;;;;;2.25;1.32;;;;;;;10.01;65.31;99528.27;1785718;80;21037;-39
2021/09/03 02:06:43;;;;;;;2.60;1.50;;;;;;;10.02;65.24;99533.91;1773321;80;21108;-39
2021/09/03 02:09:10;;;;;;;3.10;1.25;;;;;;;9.98;65.41;99539.22;1780031;80;20910;-39
2021/09/03 02:11:38;;;;;;;2.67;1.60;;;;;;;9.95;65.32;99530.45;1769226;79;20973;-39
2021/09/03 02:14:06;;;;;;;7.10;1.98;;;;;;;9.96;65.28;99531.24;1781368;78;20922;-39
2021/09/03 02:16:33;;;;;;;1.87;1.30;;;;;;;9.98;65.42;99532.45;1788734;80;21077;-39
2021/09/03 02:19:00;;;;;;;4.45;1.40;;;;;;;10.03;65.28;99528.13;1776439;80;21194;-39
2021/09/03 02:21:28;;;;;;;3.80;1.45;;;;;;;10.03;65.36;99527.33;1783999;79;20958;-39
2021/09/03 02:23:55;;;;;;;2.45;1.47;;;;;;;10.00;65.29;99523.42;1782344;80;20919;-39
2021/09/03 02:26:22;;;;;;;3.55;1.32;;;;;;;9.94;65.45;99523.46;1791502;79;20998;-39
2021/09/03 02:28:48;;;;;;;2.58;1.62;;;;;;;9.87;65.34;99521.95;1792980;79;21037;-39
2021/09/03 02:31:14;;;;;;;3.30;1.47;;;;;;;9.80;65.53;99533.16;1785213;80;21055;-39
2021/09/03 02:33:41;;;;;;;3.85;1.52;;;;;;;9.68;65.74;99529.98;1701425;84;20890;-39
2021/09/03 02:36:08;;;;;;;3.60;1.40;;;;;;;9.62;66.00;99527.31;1722097;82;21569;-39
2021/09/03 02:38:34;;;;;;;2.95;1.50;;;;;;;9.64;65.92;99529.09;1717190;83;20922;-39
2021/09/03 02:41:01;;;;;;;4.03;1.67;;;;;;;9.69;65.91;99532.89;1729619;81;21037;-39
2021/09/03 02:43:27;;;;;;;3.12;1.50;;;;;;;9.66;65.89;99524.12;1725633;82;21874;-39
2021/09/03 02:45:54;;;;;;;4.62;1.35;;;;;;;9.60;65.83;99529.58;1719074;82;21112;-39
2021/09/03 02:48:21;;;;;;;4.50;1.62;;;;;;;9.54;66.10;99526.89;1753166;81;21022;-39
2021/09/03 02:50:47;;;;;;;7.80;1.60;;;;;;;9.53;65.98;99530.77;1742319;82;20985;-39
2021/09/03 02:53:14;;;;;;;2.15;1.52;;;;;;;9.50;65.93;99524.67;1737105;82;21579;-39
2021/09/03 02:55:42;;;;;;;6.62;1.60;;;;;;;9.50;65.96;99521.97;1740943;82;21012;-39
2021/09/03 02:58:09;;;;;;;2.85;1.60;;;;;;;9.49;65.91;99520.39;1733042;82;21540;-39
2021/09/03 03:00:35;;;;;;;5.62;1.87;;;;;;;9.46;65.87;99526.50;1735485;82;21011;-39
2021/09/03 03:03:02;;;;;;;3.67;1.30;;;;;;;9.44;65.99;99531.50;1737770;82;20949;-39
2021/09/03 03:05:29;;;;;;;6.80;1.90;;;;;;;9.41;65.91;99531.61;1743811;82;21021;-39
2021/09/03 03:07:55;;;;;;;5.45;1.42;;;;;;;9.39;65.97;99531.75;1784109;80;21750;-39
2021/09/03 03:10:23;;;;;;;4.37;1.72;;;;;;;9.37;66.10;99534.00;1792108;78;21551;-40
2021/09/03 03:12:53;;;;;;;3.35;1.70;;;;;;;9.31;66.23;99535.38;1790860;79;21005;-39
2021/09/03 03:15:21;;;;;;;2.55;1.67;;;;;;;9.30;66.40;99529.74;1782184;79;21017;-39
2021/09/03 03:17:50;;;;;;;;;;;;;;;9.33;66.32;99531.77;1765106;80;21494;-39
2021/09/03 03:20:17;;;;;;;3.80;1.40;;;;;;;9.32;66.52;99532.34;1757403;80;21839;-39
2021/09/03 03:22:45;;;;;;;5.83;1.87;;;;;;;9.20;67.06;99535.69;1784098;80;20938;-39
2021/09/03 03:25:12;;;;;;;5.60;1.75;;;;;;;9.21;67.11;99533.17;1784276;80;21003;-40
2021/09/03 03:27:39;;;;;;;3.75;1.50;;;;;;;9.20;67.17;99534.33;1781961;79;20942;-39
2021/09/03 03:30:08;;;;;;;4.10;1.55;;;;;;;9.21;67.16;99531.26;1780341;80;20948;-39
2021/09/03 03:32:35;;;;;;;3.75;1.80;;;;;;;9.22;67.08;99528.78;1782507;80;21522;-39
2021/09/03 03:35:01;;;;;;;2.87;1.65;;;;;;;9.25;66.92;99535.41;1778446;80;20901;-39
2021/09/03 03:37:28;;;;;;;3.55;1.40;;;;;;;9.26;66.93;99522.89;1783057;80;21038;-39
2021/09/03 03:39:54;;;;;;;8.93;1.72;;;;;;;9.24;67.07;99535.20;1784322;79;21067;-39
2021/09/03 03:42:21;;;;;;;4.67;1.67;;;;;;;9.18;67.00;99532.52;1785048;78;21000;-39
2021/09/03 03:44:48;;;;;;;5.05;1.60;;;;;;;9.12;66.80;99534.13;1778171;80;21130;-39
2021/09/03 03:47:15;;;;;;;3.33;1.52;;;;;;;9.04;66.81;99539.13;1778718;80;21516;-39
2021/09/03 03:49:42;;;;;;;3.75;1.85;;;;;;;8.99;66.84;99540.72;1778395;80;21008;-39
2021/09/03 03:52:10;;;;;;;3.35;1.40;;;;;;;8.93;66.84;99535.33;1781094;79;21021;-39
2021/09/03 03:54:38;;;;;;;3.20;1.50;;;;;;;8.91;66.83;99540.28;1784263;80;20909;-39
2021/09/03 03:57:05;;;;;;;4.58;1.50;;;;;;;8.83;66.95;99539.08;1781714;80;21538;-39
2021/09/03 03:59:32;;;;;;;5.33;1.95;;;;;;;8.72;67.29;99541.47;1773797;80;21640;-39
2021/09/03 04:01:58;;;;;;;2.87;1.85;;;;;;;8.64;67.57;99540.49;1775989;80;21078;-39
2021/09/03 04:04:25;;;;;;;2.75;1.52;;;;;;;8.58;67.88;99539.70;1780640;80;21562;-39
2021/09/03 04:06:53;;;;;;;4.17;1.87;;;;;;;8.56;68.22;99543.33;1778452;80;20968;-39
2021/09/03 04:09:20;;;;;;;4.70;2.00;;;;;;;8.57;68.42;99541.62;1778495;80;22039;-39
2021/09/03 04:11:47;;;;;;;5.00;1.87;;;;;;;8.60;68.62;99549.06;1777663;79;21021;-39
2021/09/03 04:14:16;;;;;;;4.67;2.17;;;;;;;8.63;68.77;99546.23;1779127;79;21033;-39
2021/09/03 04:16:42;;;;;;;3.17;2.12;;;;;;;8.66;68.84;99542.86;1776533;79;21011;-39
2021/09/03 04:19:09;;;;;;;4.40;2.33;;;;;;;8.68;69.05;99536.53;1779527;79;21511;-39
2021/09/03 04:21:36;;;;;;;6.20;2.20;;;;;;;8.67;69.22;99541.71;1786062;80;21371;-39
2021/09/03 04:24:05;;;;;;;5.75;2.05;;;;;;;8.66;69.44;99540.16;1777277;80;20997;-39
2021/09/03 04:26:32;;;;;;;4.22;1.70;;;;;;;8.43;69.52;99487.73;1775441;80;20879;-39
2021/09/03 04:28:58;;;;;;;3.50;1.87;;;;;;;8.82;69.67;99540.20;1777049;80;21508;-39
2021/09/03 04:31:25;;;;;;;7.03;2.30;;;;;;;8.85;69.81;99541.68;1782603;80;21096;-39
2021/09/03 04:33:52;;;;;;;5.40;2.22;;;;;;;8.88;69.77;99547.73;1780638;80;22081;-39
2021/09/03 04:36:18;;;;;;;2.98;1.92;;;;;;;8.88;69.86;99545.04;1785616;80;20999;-39
2021/09/03 04:38:45;;;;;;;8.68;2.30;;;;;;;8.94;69.82;99549.08;1782837;79;21086;-39
2021/09/03 04:41:11;;;;;;;4.58;1.77;;;;;;;9.03;69.83;99551.07;1791776;78;21357;-39
2021/09/03 04:43:38;;;;;;;6.53;2.15;;;;;;;9.13;69.73;99546.52;1786822;79;21094;-39
2021/09/03 04:46:04;;;;;;;5.03;1.80;;;;;;;9.19;69.71;99541.66;1783047;80;21803;-39
2021/09/03 04:48:31;;;;;;;3.33;1.90;;;;;;;9.24;69.46;99540.62;1791252;80;21879;-39
2021/09/03 04:50:58;;;;;;;3.87;2.10;;;;;;;9.28;69.61;99546.91;1787771;79;20957;-39
2021/09/03 04:53:24;;;;;;;5.00;1.80;;;;;;;9.35;69.36;99544.37;1784734;78;21519;-39
2021/09/03 04:55:52;;;;;;;7.58;1.67;;;;;;;9.46;69.08;99548.95;1771153;79;21061;-39
2021/09/03 04:58:19;;;;;;;4.72;1.52;;;;;;;9.57;68.72;99546.52;1770196;78;21125;-40
2021/09/03 05:00:47;;;;;;;4.08;1.77;;;;;;;9.63;68.51;99544.34;1793193;79;21004;-39
2021/09/03 05:03:14;;;;;;;2.58;1.60;;;;;;;9.69;68.57;99551.84;1768083;79;20946;-39
2021/09/03 05:05:40;;;;;;;7.92;2.10;;;;;;;9.76;68.28;99545.83;1760034;81;21476;-39
2021/09/03 05:08:07;;;;;;;4.08;1.47;;;;;;;9.82;68.45;99549.29;1788602;80;21457;-39
2021/09/03 05:10:33;;;;;;;6.00;1.62;;;;;;;9.94;68.37;99551.89;1789917;80;21484;-39
2021/09/03 05:13:00;;;;;;;3.58;1.50;;;;;;;10.12;68.17;99547.48;1785464;80;21032;-39
2021/09/03 05:15:37;;;;;;;4.50;1.57;;;;;;;10.24;67.61;99540.06;1781661;79;21064;-39
2021/09/03 05:18:05;;;;;;;4.90;1.57;;;;;;;10.33;67.26;99549.34;1780494;79;21531;-39
2021/09/03 05:20:33;;;;;;;4.35;1.72;;;;;;;10.41;66.71;99540.23;1789029;78;20916;-39
2021/09/03 05:23:00;;;;;;;4.20;1.50;;;;;;;10.49;66.73;99548.75;1775358;79;21084;-39
2021/09/03 05:25:27;;;;;;;5.83;2.15;;;;;;;10.59;66.56;99542.78;1782594;79;21041;-40
2021/09/03 05:27:53;;;;;;;4.60;1.70;;;;;;;10.70;66.34;99540.27;1789945;78;21014;-39
2021/09/03 05:30:20;;;;;;;3.47;1.52;;;;;;;10.79;65.95;99540.31;1788286;79;21025;-39
2021/09/03 05:32:46;;;;;;;2.55;1.70;;;;;;;10.94;65.52;99536.53;1786241;79;21531;-39
2021/09/03 05:35:13;;;;;;;4.37;1.60;;;;;;;11.06;65.49;99541.80;1799468;78;21089;-39
2021/09/03 05:37:42;;;;;;;4.97;1.77;;;;;;;11.15;65.46;99533.64;1788946;78;20982;-39
2021/09/03 05:40:10;;;;;;;2.80;1.40;;;;;;;11.23;65.26;99532.62;1798919;78;20926;-39
2021/09/03 05:42:37;;;;;;;13.13;1.90;;;;;;;11.30;64.01;99526.56;1799049;79;21005;-39
2021/09/03 05:45:06;;;;;;;4.70;1.70;;;;;;;11.36;64.37;99525.70;1791123;79;21029;-39
2021/09/03 05:47:32;;;;;;;2.45;1.37;;;;;;;11.44;63.92;99523.31;1797517;79;21158;-39
2021/09/03 05:49:59;;;;;;;2.83;1.50;;;;;;;11.52;63.86;99524.42;1800972;78;21019;-40
2021/09/03 05:52:26;;;;;;;6.50;1.82;;;;;;;11.61;63.78;99524.21;1799416;79;21008;-39
2021/09/03 05:54:52;;;;;;;2.58;1.30;;;;;;;11.73;63.40;99520.76;1797400;79;20994;-39
2021/09/03 05:57:20;;;;;;;3.30;1.30;;;;;;;11.85;62.84;99525.23;1793332;79;21009;-39
2021/09/03 05:59:49;;;;;;;2.58;1.37;;;;;;;11.97;62.75;99526.38;1799723;78;21841;-39
2021/09/03 06:02:17;;;;;;;1.90;1.30;;;;;;;12.05;62.42;99522.62;1785047;79;20974;-39
2021/09/03 06:04:43;;;;;;;5.83;1.37;;;;;;;12.12;62.06;99523.31;1781376;79;20984;-39
2021/09/03 06:07:10;;;;;;;3.08;1.52;;;;;;;12.18;61.66;99520.50;1777449;80;20997;-39
2021/09/03 06:09:36;;;;;;;2.27;1.32;;;;;;;12.25;62.10;99526.02;1788662;79;20981;-39
2021/09/03 06:12:06;;;;;;;4.58;1.42;;;;;;;12.29;61.45;99522.02;1777902;79;20939;-39
2021/09/03 06:14:33;;;;;;;2.55;1.47;;;;;;;12.31;61.43;99521.84;1798013;79;20990;-40
2021/09/03 06:17:00;;;;;;;5.37;1.20;;;;;;;12.33;61.52;99518.20;1774005;79;21590;-40
2021/09/03 06:19:27;;;;;;;1.77;1.30;;;;;;;12.37;61.59;99521.75;1789356;79;20966;-39
2021/09/03 06:21:53;;;;;;;3.87;0.95;;;;;;;12.44;61.48;99517.75;1797517;79;21540;-39
2021/09/03 06:24:34;;;;;;;2.80;1.40;;;;;;;12.57;61.46;99510.17;1800105;79;21129;-39
2021/09/03 06:27:03;;;;;;;3.42;1.30;;;;;;;12.75;60.87;99513.89;1801606;79;21316;-39
2021/09/03 06:29:40;;;;;;;3.00;1.30;;;;;;;12.91;60.62;99509.62;1794594;79;20956;-39
2021/09/03 06:32:21;;;;;;;1.25;0.90;;;;;;;13.05;59.73;99512.50;1805262;79;21861;-39
2021/09/03 06:34:57;;;;;;;2.58;1.02;;;;;;;13.15;58.85;99519.25;1801900;79;21020;-39
2021/09/03 06:37:25;;;;;;;2.55;1.30;;;;;;;13.23;58.69;99510.78;1801596;79;21109;-39
2021/09/03 06:39:52;;;;;;;2.83;1.25;;;;;;;13.32;59.21;99506.39;1796429;79;21610;-39
2021/09/03 06:42:19;;;;;;;3.33;1.72;;;;;;;13.44;59.25;99503.41;1810144;77;20953;-39
2021/09/03 06:44:47;;;;;;;2.08;1.22;;;;;;;13.58;58.27;99505.48;1801217;77;21005;-39
2021/09/03 06:47:14;;;;;;;5.03;1.27;;;;;;;13.68;57.39;99503.44;1800421;79;21024;-40
2021/09/03 06:49:41;;;;;;;2.15;1.15;;;;;;;13.76;57.57;99509.92;1802736;79;21142;-39
2021/09/03 06:52:09;;;;;;;3.67;1.40;;;;;;;13.82;57.95;99504.34;1799009;79;21011;-39
2021/09/03 06:54:36;;;;;;;2.22;1.25;;;;;;;13.94;57.95;99499.94;1798439;79;21498;-39
2021/09/03 06:57:04;;;;;;;3.35;1.27;;;;;;;14.06;57.60;99502.17;1809852;77;20936;-39
2021/09/03 06:59:31;;;;;;;1.45;1.02;;;;;;;14.18;57.40;99498.58;1798900;79;21025;-39
2021/09/03 07:01:57;;;;;;;2.37;1.30;;;;;;;14.33;57.42;99505.66;1808488;79;21129;-39
2021/09/03 07:04:25;;;;;;;2.47;1.20;;;;;;;14.48;55.79;99503.03;1805002;78;20961;-40
2021/09/03 07:06:52;;;;;;;1.92;1.10;;;;;;;14.59;54.37;99503.88;1788824;79;21487;-39
2021/09/03 07:09:19;;;;;;;3.62;1.00;;;;;;;14.69;54.76;99505.30;1797584;77;21008;-40
2021/09/03 07:11:47;;;;;;;2.22;1.10;;;;;;;14.81;54.66;99508.28;1794777;78;20965;-39
2021/09/03 07:14:14;;;;;;;6.78;1.17;;;;;;;14.95;55.28;99504.25;1793938;79;21062;-39
2021/09/03 07:16:43;;;;;;;3.45;0.93;;;;;;;15.09;54.31;99510.33;1804222;77;21452;-39
2021/09/03 07:19:09;;;;;;;3.10;0.80;;;;;;;15.15;52.82;99498.63;1807902;77;21052;-39
2021/09/03 07:21:36;;;;;;;5.20;1.20;;;;;;;15.21;53.44;99503.91;1798121;79;21000;-40
2021/09/03 07:24:04;;;;;;;3.25;1.02;;;;;;;15.30;52.48;99502.78;1782297;79;21014;-39
2021/09/03 07:26:31;;;;;;;1.30;0.88;;;;;;;15.36;52.14;99491.07;1782371;80;21799;-39
2021/09/03 07:28:57;;;;;;;3.58;0.93;;;;;;;15.45;52.12;99504.34;1778580;80;21526;-40
2021/09/03 07:31:25;;;;;;;4.75;1.05;;;;;;;15.54;52.55;99499.34;1785788;79;20946;-40
2021/09/03 07:33:52;;;;;;;2.37;1.17;;;;;;;15.62;51.66;99496.80;1777773;79;20986;-39
2021/09/03 07:36:19;;;;;;;2.00;1.00;;;;;;;15.63;50.73;99499.15;1788844;80;21061;-39
2021/09/03 07:38:46;;;;;;;3.30;0.98;;;;;;;15.64;51.02;99493.08;1791847;79;21798;-39
2021/09/03 07:41:12;;;;;;;2.72;1.20;;;;;;;15.68;51.29;99493.09;1791773;79;21041;-40
2021/09/03 07:43:39;;;;;;;1.90;0.90;;;;;;;15.72;50.95;99494.66;1784282;80;20997;-39
2021/09/03 07:46:06;;;;;;;1.30;1.00;;;;;;;15.77;51.07;99492.91;1782890;79;21509;-40
2021/09/03 07:48:34;;;;;;;2.55;1.00;;;;;;;15.57;51.59;99445.27;1785598;80;21509;-40
2021/09/03 07:51:01;;;;;;;2.17;0.80;;;;;;;15.91;51.03;99481.96;1778159;79;22323;-40
2021/09/03 07:53:28;;;;;;;1.70;1.20;;;;;;;15.95;49.83;99475.89;1739411;80;21504;-40
2021/09/03 07:55:56;;;;;;;2.47;0.90;;;;;;;16.03;50.68;99471.97;1783628;79;21595;-40
2021/09/03 07:58:23;;;;;;;2.30;1.30;;;;;;;16.17;49.74;99472.53;1784493;80;20962;-40
2021/09/03 08:00:49;;;;;;;3.72;1.27;;;;;;;16.24;48.87;99471.16;1789396;80;21037;-40
2021/09/03 08:03:16;;;;;;;4.20;2.27;;;;;;;16.27;48.58;99470.95;1781775;79;21058;-40
2021/09/03 08:05:42;;;;;;;2.50;1.37;;;;;;;16.30;48.62;99467.44;1779767;80;20984;-39
2021/09/03 08:08:09;;;;;;;3.35;1.50;;;;;;;16.33;48.19;99470.74;1742387;80;21011;-40
2021/09/03 08:10:35;;;;;;;1.70;1.05;;;;;;;16.35;48.08;99476.03;1723742;81;20966;-40
2021/09/03 08:13:03;;;;;;;2.45;1.40;;;;;;;16.35;48.07;99464.30;1705799;83;21096;-40
2021/09/03 08:15:30;;;;;;;5.20;1.52;;;;;;;16.30;48.98;99468.22;1715228;83;21837;-40
2021/09/03 08:17:57;;;;;;;3.37;1.22;;;;;;;16.29;48.67;99468.61;1699144;82;21063;-40
2021/09/03 08:20:23;;;;;;;2.17;1.05;;;;;;;16.28;48.32;99458.84;1688025;82;21090;-40
2021/09/03 08:22:51;;;;;;;1.75;0.95;;;;;;;16.27;48.99;99465.47;1702157;83;21109;-40
2021/09/03 08:25:19;;;;;;;2.47;1.05;;;;;;;16.31;48.76;99456.11;1700994;83;21120;-40
2021/09/03 08:27:47;;;;;;;1.87;0.88;;;;;;;16.40;48.96;99458.42;1690462;84;21144;-39
2021/09/03 08:30:14;;;;;;;3.20;1.30;;;;;;;16.52;48.68;99453.28;1683016;85;20963;-40
2021/09/03 08:32:41;;;;;;;2.08;1.32;;;;;;;16.59;49.27;99449.00;1690081;82;20957;-40
2021/09/03 08:35:08;;;;;;;1.60;1.00;;;;;;;16.59;48.07;99452.52;1700267;83;21030;-40
2021/09/03 08:37:35;;;;;;;1.12;0.85;;;;;;;16.58;48.24;99443.30;1697887;84;21326;-39
2021/09/03 08:40:02;;;;;;;2.95;1.40;;;;;;;16.51;47.85;99442.14;1691646;84;21823;-40
2021/09/03 08:42:29;;;;;;;2.40;1.40;;;;;;;16.53;48.00;99444.48;1685962;84;21083;-39
2021/09/03 08:44:59;;;;;;;2.52;1.35;;;;;;;16.57;47.84;99434.89;1696545;82;21032;-40
2021/09/03 08:47:28;;;;;;;1.40;1.10;;;;;;;16.57;49.12;99439.00;1696086;84;20970;-40
2021/09/03 08:49:55;;;;;;;3.85;1.02;;;;;;;16.61;48.65;99430.98;1701872;82;21026;-40
2021/09/03 08:52:21;;;;;;;2.92;0.82;;;;;;;16.64;48.66;99422.59;1693342;82;21631;-40
2021/09/03 08:54:48;;;;;;;3.70;1.30;;;;;;;16.70;47.92;99430.58;1683203;83;20982;-40
2021/09/03 08:57:15;;;;;;;3.20;1.20;;;;;;;16.74;48.60;99428.02;1679538;83;21006;-40
2021/09/03 08:59:42;;;;;;;2.70;1.02;;;;;;;16.80;48.72;99424.25;1681876;84;21071;-40
2021/09/03 09:02:12;;;;;;;2.80;1.15;;;;;;;16.82;49.18;99419.95;1686299;83;21077;-40
2021/09/03 09:04:45;;;;;;;2.05;1.00;;;;;;;16.88;48.59;99423.83;1694617;84;21153;-40
2021/09/03 09:07:12;;;;;;;3.02;1.15;;;;;;;16.98;48.17;99416.73;1693621;83;20954;-40
2021/09/03 09:09:42;;;;;;;1.87;1.10;;;;;;;17.17;46.88;99409.37;1705879;83;21478;-40
2021/09/03 09:12:14;;;;;;;3.35;1.00;;;;;;;17.26;46.57;99421.23;1709229;83;21022;-40
2021/09/03 09:15:08;;;;;;;3.65;1.15;;;;;;;17.35;46.84;99417.45;1751047;81;21029;-40
2021/09/03 09:17:43;;;;;;;3.65;1.40;;;;;;;17.47;46.05;99408.75;1723542;82;20935;-40
2021/09/03 09:20:14;;;;;;;3.02;1.20;;;;;;;17.59;44.51;99408.27;1720827;83;20949;-40
2021/09/03 09:23:02;;;;;;;2.22;1.27;;;;;;;17.74;45.80;99407.55;1715531;82;21795;-40
2021/09/03 09:25:34;;;;;;;3.40;1.17;;;;;;;17.80;44.58;99408.09;1712018;83;20985;-40
2021/09/03 09:28:18;;;;;;;1.65;1.17;;;;;;;17.72;45.10;99402.47;1711979;82;21022;-40
2021/09/03 09:30:45;;;;;;;2.85;1.17;;;;;;;17.66;45.46;99398.63;1713730;82;21213;-40
2021/09/03 09:33:18;;;;;;;2.70;1.25;;;;;;;17.60;45.76;99407.09;1724289;82;21016;-40
2021/09/03 09:35:54;;;;;;;2.22;1.57;;;;;;;17.55;45.91;99402.02;1749439;81;21025;-40
2021/09/03 09:38:23;;;;;;;2.12;1.20;;;;;;;17.48;44.72;99397.95;1749897;81;21084;-40
2021/09/03 09:40:56;;;;;;;2.62;1.37;;;;;;;17.41;44.49;99393.13;1731132;81;21055;-40
2021/09/03 09:43:28;;;;;;;2.52;1.40;;;;;;;17.46;45.03;99391.33;1744442;79;21961;-40
2021/09/03 09:46:16;;;;;;;4.87;1.50;;;;;;;17.58;45.45;99401.78;1749601;81;20924;-40
2021/09/03 09:49:04;;;;;;;2.55;1.37;;;;;;;17.79;45.76;99396.92;1728074;81;21024;-40
2021/09/03 09:51:44;;;;;;;3.58;1.80;;;;;;;18.09;43.99;99403.09;1728225;83;21006;-40
2021/09/03 09:54:22;;;;;;;3.10;1.57;;;;;;;18.38;44.08;99389.81;1705002;83;21045;-40
2021/09/03 09:57:01;;;;;;;2.95;1.67;;;;;;;18.59;43.11;99399.77;1713297;83;21134;-40
2021/09/03 09:59:29;;;;;;;3.92;1.85;;;;;;;18.72;42.92;99390.39;1706490;83;20993;-40
2021/09/03 10:02:02;;;;;;;4.47;1.95;;;;;;;18.74;43.65;99389.38;1694327;84;21030;-40
2021/09/03 10:04:31;;;;;;;3.12;1.67;;;;;;;18.85;43.04;99385.89;1691046;84;21022;-40
2021/09/03 10:07:01;;;;;;;4.65;2.00;;;;;;;18.87;41.87;99389.79;1685891;84;20961;-40
2021/09/03 10:09:32;;;;;;;3.00;1.92;;;;;;;18.86;42.94;99381.36;1697674;84;21144;-40
2021/09/03 10:12:00;;;;;;;3.50;1.70;;;;;;;18.94;42.84;99376.53;1723516;83;20985;-40
2021/09/03 10:14:29;;;;;;;8.18;2.08;;;;;;;18.96;42.22;99368.06;1717592;82;21044;-40
2021/09/03 10:16:56;;;;;;;2.80;1.82;;;;;;;18.98;43.11;99375.87;1693068;83;21065;-40
2021/09/03 10:19:29;;;;;;;4.50;1.65;;;;;;;19.03;43.26;99365.80;1717856;82;21093;-40
2021/09/03 10:22:10;;;;;;;2.50;1.52;;;;;;;19.15;42.86;99367.98;1703707;83;21885;-40
2021/09/03 10:24:38;;;;;;;2.83;1.50;;;;;;;19.30;43.25;99356.94;1737284;82;20973;-40
2021/09/03 10:27:06;;;;;;;3.37;1.95;;;;;;;19.52;41.76;99343.62;1734150;82;21048;-40
2021/09/03 10:29:43;;;;;;;4.15;2.02;;;;;;;19.76;41.23;99349.86;1732723;82;21538;-40
2021/09/03 10:32:17;;;;;;;7.72;2.00;;;;;;;19.93;40.63;99331.66;1741603;82;21059;-40
2021/09/03 10:37:18;;;;;;;4.37;1.77;;;;;;;20.09;39.50;99331.56;1787403;79;22708;-42
2021/09/03 10:39:55;;;;;;;2.33;1.65;;;;;;;19.90;39.86;99342.72;1783113;80;21054;-41
2021/09/03 10:42:45;;;;;;;3.70;1.87;;;;;;;19.87;40.21;99337.47;1784161;80;21164;-41
2021/09/03 10:45:39;;;;;;;3.87;1.98;;;;;;;19.87;40.33;99330.59;1781876;80;20956;-41
2021/09/03 10:48:12;;;;;;;3.58;1.80;;;;;;;19.98;41.60;99330.98;1770167;80;21060;-42
2021/09/03 10:50:51;;;;;;;3.77;1.92;;;;;;;19.95;39.80;99321.00;1783455;80;20978;-42
2021/09/03 10:53:37;;;;;;;3.33;2.02;;;;;;;19.88;39.01;99326.66;1785662;80;21720;-42
2021/09/03 10:56:17;;;;;;;2.98;1.85;;;;;;;19.83;39.67;99334.02;1787269;80;21190;-42
2021/09/03 10:58:51;;;;;;;6.10;2.25;;;;;;;19.89;39.84;99318.58;1782448;80;20918;-42
2021/09/03 11:01:28;;;;;;;4.20;1.80;;;;;;;20.02;40.68;99325.59;1758640;80;20973;-42
2021/09/03 11:04:14;;;;;;;2.98;1.82;;;;;;;20.13;40.17;99313.77;1784205;80;21029;-42
2021/09/03 11:06:55;;;;;;;3.70;1.98;;;;;;;20.28;39.54;99312.25;1788066;80;21507;-42
2021/09/03 11:09:27;;;;;;;4.05;2.05;;;;;;;20.46;37.51;99309.77;1788099;80;21134;-42
2021/09/03 11:12:08;;;;;;;3.75;2.42;;;;;;;20.57;38.20;99307.56;1787890;80;21522;-42
2021/09/03 11:14:35;;;;;;;2.80;2.00;;;;;;;20.66;38.32;99306.36;1778333;79;20994;-42
2021/09/03 11:17:05;;;;;;;5.65;2.15;;;;;;;20.77;37.27;99309.03;1717420;83;21040;-42
2021/09/03 11:19:36;;;;;;;2.70;2.00;;;;;;;20.88;37.21;99319.80;1748199;81;20929;-42
2021/09/03 11:22:16;;;;;;;3.02;2.02;;;;;;;21.03;36.65;99313.36;1728915;81;21061;-43
2021/09/03 11:24:50;;;;;;;4.15;2.37;;;;;;;21.23;36.78;99328.64;1729131;82;21207;-42
2021/09/03 11:27:20;;;;;;;4.12;2.30;;;;;;;21.36;35.43;99305.25;1708056;84;20996;-42
2021/09/03 11:30:00;;;;;;;3.83;1.95;;;;;;;21.50;35.56;99298.59;1708302;84;21548;-42
2021/09/03 11:32:29;;;;;;;4.60;1.92;;;;;;;21.63;35.04;99294.70;1752853;81;21557;-42
2021/09/03 11:35:09;;;;;;;4.40;2.00;;;;;;;21.65;35.84;99297.01;1710470;83;21755;-42
2021/09/03 11:37:45;;;;;;;3.52;2.05;;;;;;;21.42;35.36;99286.98;1751918;81;20968;-42
2021/09/03 11:40:33;;;;;;;3.42;2.20;;;;;;;21.15;35.98;99285.92;1753779;81;21616;-42
2021/09/03 11:43:02;;;;;;;2.98;2.10;;;;;;;21.13;36.70;99272.34;1707324;81;21614;-42
2021/09/03 11:45:42;;;;;;;3.43;2.10;;;;;;;21.28;37.22;99269.43;1723155;83;21028;-43
2021/09/03 11:48:14;;;;;;;4.95;1.85;;;;;;;21.43;35.90;99272.59;1742257;81;21135;-43